createdAt,value
2023-03-26T00:00:05.910Z,98.04
2023-03-26T00:02:34.108Z,98.08
2023-03-26T00:05:05.997Z,98.24
2023-03-26T00:07:34.146Z,98.81
2023-03-26T00:10:03.750Z,99.20
2023-03-26T00:12:31.862Z,99.91
2023-03-26T00:14:59.908Z,100.00
2023-03-26T00:17:29.168Z,100.00
2023-03-26T00:19:57.329Z,100.00
2023-03-26T00:22:25.628Z,100.00
2023-03-26T00:24:53.695Z,100.00
2023-03-26T00:27:23.047Z,100.00
2023-03-26T00:29:51.050Z,100.00
2023-03-26T00:32:19.088Z,100.00
2023-03-26T00:34:47.435Z,100.00
2023-03-26T00:37:15.860Z,100.00
2023-03-26T00:39:49.205Z,100.00
2023-03-26T00:42:17.378Z,100.00
2023-03-26T00:44:46.765Z,100.00
2023-03-26T00:47:15.082Z,100.00
2023-03-26T00:49:46.923Z,100.00
2023-03-26T00:52:14.993Z,100.00
2023-03-26T00:54:43.428Z,100.00
2023-03-26T00:57:16.373Z,100.00
2023-03-26T00:59:53.484Z,100.00
2023-03-26T01:02:21.687Z,100.00
2023-03-26T01:04:57.400Z,100.00
2023-03-26T01:07:29.112Z,100.00
2023-03-26T01:10:01.205Z,100.00
2023-03-26T01:12:33.044Z,100.00
2023-03-26T01:15:04.637Z,100.00
2023-03-26T01:17:34.371Z,100.00
2023-03-26T01:20:13.292Z,100.00
2023-03-26T01:22:45.785Z,100.00
2023-03-26T01:25:15.288Z,100.00
2023-03-26T01:27:48.111Z,100.00
2023-03-26T01:30:25.433Z,100.00
2023-03-26T01:33:02.502Z,100.00
2023-03-26T01:35:47.000Z,100.00
2023-03-26T01:38:29.200Z,100.00
2023-03-26T01:41:05.797Z,100.00
2023-03-26T01:43:40.797Z,100.00
2023-03-26T01:46:12.641Z,100.00
2023-03-26T01:48:43.337Z,100.00
2023-03-26T01:51:13.204Z,100.00
2023-03-26T01:53:45.175Z,100.00
2023-03-26T01:56:20.604Z,100.00
2023-03-26T01:59:02.991Z,100.00
2023-03-26T02:01:37.588Z,100.00
2023-03-26T02:04:14.196Z,100.00
2023-03-26T02:06:47.427Z,100.00
2023-03-26T02:09:22.459Z,100.00
2023-03-26T02:11:52.703Z,100.00
2023-03-26T02:14:21.828Z,100.00
2023-03-26T02:16:51.553Z,100.00
2023-03-26T02:19:22.063Z,100.00
2023-03-26T02:21:51.603Z,100.00
2023-03-26T02:24:20.588Z,100.00
2023-03-26T02:26:50.091Z,100.00
2023-03-26T02:29:20.643Z,100.00
2023-03-26T02:31:49.685Z,100.00
2023-03-26T02:34:17.904Z,100.00
2023-03-26T02:36:46.026Z,100.00
2023-03-26T02:39:14.441Z,100.00
2023-03-26T02:41:42.713Z,100.00
2023-03-26T02:44:10.782Z,100.00
2023-03-26T02:46:40.280Z,100.00
2023-03-26T02:49:08.673Z,100.00
2023-03-26T02:51:37.642Z,100.00
2023-03-26T02:54:07.223Z,100.00
2023-03-26T02:56:35.779Z,100.00
2023-03-26T02:59:03.914Z,100.00
2023-03-26T03:01:35.035Z,100.00
2023-03-26T03:04:05.291Z,100.00
2023-03-26T03:06:33.313Z,100.00
2023-03-26T03:09:02.815Z,100.00
2023-03-26T03:11:30.872Z,100.00
2023-03-26T03:13:58.899Z,100.00
2023-03-26T03:16:27.228Z,100.00
2023-03-26T03:18:57.897Z,100.00
2023-03-26T03:21:29.184Z,100.00
2023-03-26T03:24:00.162Z,100.00
2023-03-26T03:26:29.960Z,100.00
2023-03-26T03:29:00.502Z,100.00
2023-03-26T03:31:28.625Z,100.00
2023-03-26T03:33:57.225Z,100.00
2023-03-26T03:36:27.817Z,100.00
2023-03-26T03:39:02.389Z,100.00
2023-03-26T03:41:30.820Z,100.00
2023-03-26T03:43:59.937Z,100.00
2023-03-26T03:46:28.125Z,100.00
2023-03-26T03:48:56.597Z,100.00
2023-03-26T03:51:25.980Z,100.00
2023-03-26T03:53:55.977Z,100.00
2023-03-26T03:56:26.237Z,100.00
2023-03-26T03:58:54.292Z,100.00
2023-03-26T04:01:23.633Z,100.00
2023-03-26T04:03:54.138Z,100.00
2023-03-26T04:06:22.196Z,100.00
2023-03-26T04:08:50.203Z,100.00
2023-03-26T04:11:18.351Z,100.00
2023-03-26T04:13:47.731Z,100.00
2023-03-26T04:16:17.579Z,100.00
2023-03-26T04:18:47.163Z,100.00
2023-03-26T04:21:16.016Z,100.00
2023-03-26T04:23:47.529Z,100.00
2023-03-26T04:26:20.154Z,100.00
2023-03-26T04:28:54.952Z,100.00
2023-03-26T04:31:29.270Z,100.00
2023-03-26T04:34:01.650Z,100.00
2023-03-26T04:36:32.263Z,100.00
2023-03-26T04:39:04.981Z,100.00
2023-03-26T04:41:33.357Z,100.00
2023-03-26T04:44:05.633Z,100.00
2023-03-26T04:46:35.125Z,100.00
2023-03-26T04:49:04.420Z,100.00
2023-03-26T04:51:39.575Z,100.00
2023-03-26T04:54:08.478Z,100.00
2023-03-26T04:56:46.693Z,100.00
2023-03-26T04:59:27.371Z,100.00
2023-03-26T05:01:55.421Z,100.00
2023-03-26T05:04:23.546Z,100.00
2023-03-26T05:06:52.089Z,100.00
2023-03-26T05:09:20.793Z,100.00
2023-03-26T05:11:53.109Z,100.00
2023-03-26T05:14:22.507Z,100.00
2023-03-26T05:16:53.372Z,100.00
2023-03-26T05:19:21.458Z,100.00
2023-03-26T05:21:49.671Z,100.00
2023-03-26T05:24:19.732Z,100.00
2023-03-26T05:26:47.770Z,100.00
2023-03-26T05:29:18.382Z,100.00
2023-03-26T05:31:49.132Z,100.00
2023-03-26T05:34:17.410Z,100.00
2023-03-26T05:36:45.540Z,100.00
2023-03-26T05:39:14.293Z,100.00
2023-03-26T05:41:46.921Z,100.00
2023-03-26T05:44:14.898Z,100.00
2023-03-26T05:46:42.888Z,100.00
2023-03-26T05:49:12.290Z,100.00
2023-03-26T05:51:40.534Z,100.00
2023-03-26T05:54:08.589Z,100.00
2023-03-26T05:56:39.566Z,100.00
2023-03-26T05:59:08.069Z,100.00
2023-03-26T06:01:36.445Z,100.00
2023-03-26T06:04:06.943Z,100.00
2023-03-26T06:06:36.562Z,100.00
2023-03-26T06:09:05.184Z,100.00
2023-03-26T06:11:33.269Z,100.00
2023-03-26T06:14:01.578Z,100.00
2023-03-26T06:16:29.628Z,100.00
2023-03-26T06:18:58.454Z,100.00
2023-03-26T06:21:26.980Z,100.00
2023-03-26T06:23:59.608Z,100.00
2023-03-26T06:38:47.709Z,100.00
2023-03-26T07:48:33.216Z,100.00
2023-03-26T09:47:16.561Z,100.00
2023-03-26T09:50:07.151Z,100.00
2023-03-26T09:52:57.272Z,100.00
2023-03-26T09:56:05.171Z,100.00
2023-03-26T11:52:24.576Z,90.38
2023-03-26T11:55:19.902Z,89.77
2023-03-26T11:58:18.013Z,89.38
2023-03-26T12:01:14.112Z,88.64
2023-03-26T12:06:55.097Z,84.05
2023-03-26T12:16:16.700Z,80.49
2023-03-26T12:19:19.649Z,79.00
2023-03-26T12:27:42.515Z,77.67
2023-03-26T12:30:28.256Z,77.81
2023-03-26T12:33:14.330Z,77.72
2023-03-26T12:35:44.792Z,77.15
2023-03-26T12:43:53.486Z,74.49
2023-03-26T12:44:51.665Z,73.92
2023-03-26T12:48:00.709Z,74.16
2023-03-26T12:50:56.398Z,74.40
2023-03-26T12:53:59.962Z,74.04
2023-03-26T13:00:00.900Z,72.51
2023-03-26T13:02:37.755Z,72.21
2023-03-26T13:05:19.763Z,71.92
2023-03-26T13:07:58.657Z,72.47
2023-03-26T13:10:31.710Z,72.89
2023-03-26T13:13:08.739Z,72.89
2023-03-26T13:15:38.850Z,73.21
2023-03-26T13:18:15.079Z,72.96
2023-03-26T13:20:50.635Z,71.79
2023-03-26T13:23:24.582Z,71.82
2023-03-26T13:25:56.786Z,71.71
2023-03-26T13:28:31.013Z,71.04
2023-03-26T13:31:04.943Z,71.15
2023-03-26T13:33:40.275Z,70.08
2023-03-26T13:36:23.333Z,68.92
2023-03-26T13:39:07.941Z,68.31
2023-03-26T13:41:45.592Z,67.06
2023-03-26T13:44:17.374Z,67.42
2023-03-26T13:46:47.406Z,67.18
2023-03-26T13:49:17.073Z,66.97
2023-03-26T13:51:46.702Z,66.13
2023-03-26T13:54:23.084Z,65.96
2023-03-26T13:56:53.880Z,65.56
2023-03-26T13:59:24.224Z,65.04
2023-03-26T14:01:55.208Z,64.07
2023-03-26T14:04:25.051Z,64.35
2023-03-26T14:06:57.670Z,64.42
2023-03-26T14:09:32.161Z,64.70
2023-03-26T14:12:21.101Z,65.64
2023-03-26T14:14:54.590Z,65.75
2023-03-26T14:17:31.818Z,65.51
2023-03-26T14:20:11.781Z,65.75
2023-03-26T14:22:47.555Z,66.27
2023-03-26T14:25:23.676Z,65.31
2023-03-26T14:28:12.716Z,64.25
2023-03-26T14:30:58.503Z,64.21
2023-03-26T14:33:44.363Z,62.59
2023-03-26T14:36:16.134Z,61.84
2023-03-26T14:38:59.258Z,62.31
2023-03-26T14:41:31.292Z,61.70
2023-03-26T14:44:18.171Z,62.13
2023-03-26T14:47:04.677Z,61.10
2023-03-26T14:49:56.778Z,60.93
2023-03-26T14:52:29.885Z,60.63
2023-03-26T14:54:59.954Z,59.59
2023-03-26T14:57:39.857Z,59.01
2023-03-26T15:00:33.763Z,58.93
2023-03-26T15:03:21.616Z,58.67
2023-03-26T15:06:00.245Z,58.58
2023-03-26T15:08:46.007Z,58.77
2023-03-26T15:11:24.843Z,58.07
2023-03-26T15:15:05.698Z,56.49
2023-03-26T15:18:11.436Z,56.67
2023-03-26T15:21:20.552Z,56.90
2023-03-26T15:24:11.288Z,57.11
2023-03-26T15:51:10.066Z,56.28
2023-03-26T15:53:53.484Z,55.51
2023-03-26T15:56:39.940Z,55.96
2023-03-26T15:59:41.973Z,56.94
2023-03-26T16:02:43.862Z,56.62
2023-03-26T16:06:07.637Z,55.31
2023-03-26T16:08:46.969Z,56.11
2023-03-26T16:11:16.272Z,56.30
2023-03-26T16:13:46.358Z,56.38
2023-03-26T16:16:47.123Z,56.48
2023-03-26T16:19:36.299Z,56.93
2023-03-26T16:22:06.169Z,56.58
2023-03-26T16:24:35.321Z,56.81
2023-03-26T16:27:25.949Z,56.44
2023-03-26T16:30:20.157Z,57.15
2023-03-26T16:32:49.966Z,57.17
2023-03-26T16:35:37.201Z,57.78
2023-03-26T16:38:10.766Z,58.35
2023-03-26T16:40:51.174Z,58.81
2023-03-26T16:43:34.102Z,59.37
2023-03-26T16:46:05.385Z,59.50
2023-03-26T16:48:36.629Z,60.10
2023-03-26T16:51:08.852Z,60.19
2023-03-26T16:53:44.153Z,60.18
2023-03-26T16:56:17.981Z,60.58
2023-03-26T16:58:54.271Z,60.92
2023-03-26T17:01:27.607Z,60.76
2023-03-26T17:03:57.075Z,61.10
2023-03-26T17:06:32.034Z,61.66
2023-03-26T17:09:07.527Z,61.65
2023-03-26T17:11:48.386Z,62.05
2023-03-26T17:14:26.860Z,62.22
2023-03-26T17:17:08.088Z,62.31
2023-03-26T17:19:40.888Z,62.30
2023-03-26T17:22:12.979Z,62.63
2023-03-26T17:24:45.746Z,62.90
2023-03-26T17:27:24.039Z,63.15
2023-03-26T17:30:00.499Z,63.41
2023-03-26T17:32:43.518Z,63.61
2023-03-26T17:35:13.918Z,63.66
2023-03-26T17:37:46.049Z,63.77
2023-03-26T17:40:38.351Z,63.96
2023-03-26T17:43:11.224Z,64.44
2023-03-26T17:45:40.457Z,63.96
2023-03-26T17:48:11.628Z,64.28
2023-03-26T17:50:44.522Z,64.36
2023-03-26T17:53:18.290Z,64.30
2023-03-26T17:55:46.769Z,64.04
2023-03-26T17:58:35.535Z,64.19
2023-03-26T18:01:14.658Z,64.64
2023-03-26T18:03:46.587Z,64.73
2023-03-26T18:06:15.874Z,64.68
2023-03-26T18:08:51.226Z,64.89
2023-03-26T18:11:50.973Z,64.88
2023-03-26T18:14:42.476Z,65.22
2023-03-26T18:17:12.905Z,65.64
2023-03-26T18:19:48.740Z,66.15
2023-03-26T18:22:20.089Z,66.41
2023-03-26T18:24:48.967Z,66.43
2023-03-26T18:27:17.868Z,66.53
2023-03-26T18:29:47.673Z,66.92
2023-03-26T18:32:31.056Z,67.17
2023-03-26T18:34:59.778Z,67.24
2023-03-26T18:37:29.550Z,67.50
2023-03-26T18:39:59.085Z,67.88
2023-03-26T18:42:28.285Z,68.08
2023-03-26T18:44:59.855Z,68.25
2023-03-26T18:47:38.636Z,68.64
2023-03-26T18:50:07.350Z,68.86
2023-03-26T18:52:35.404Z,68.88
2023-03-26T18:55:04.388Z,69.20
2023-03-26T18:57:32.984Z,68.33
2023-03-26T19:00:10.960Z,67.81
2023-03-26T19:02:40.594Z,67.99
2023-03-26T19:05:11.257Z,67.69
2023-03-26T19:07:39.238Z,67.50
2023-03-26T19:10:08.787Z,67.62
2023-03-26T19:12:37.671Z,67.47
2023-03-26T19:15:07.878Z,67.17
2023-03-26T19:17:39.705Z,67.58
2023-03-26T19:20:15.025Z,67.95
2023-03-26T19:22:44.753Z,68.11
2023-03-26T19:25:22.159Z,68.48
2023-03-26T19:27:50.723Z,68.90
2023-03-26T19:30:28.480Z,68.99
2023-03-26T19:33:12.233Z,69.22
2023-03-26T19:35:44.585Z,69.59
2023-03-26T19:38:26.153Z,69.81
2023-03-26T19:40:55.908Z,69.20
2023-03-26T19:43:24.648Z,69.27
2023-03-26T19:45:59.606Z,69.36
2023-03-26T19:48:46.219Z,69.57
2023-03-26T19:51:21.625Z,69.85
2023-03-26T19:53:51.259Z,70.08
2023-03-26T19:56:20.976Z,70.18
2023-03-26T19:58:50.406Z,70.34
2023-03-26T20:01:21.441Z,70.82
2023-03-26T20:03:52.943Z,71.05
2023-03-26T20:06:30.710Z,71.25
2023-03-26T20:09:02.281Z,71.77
2023-03-26T20:11:33.745Z,71.75
2023-03-26T20:14:02.456Z,71.86
2023-03-26T20:16:31.924Z,71.88
2023-03-26T20:19:04.852Z,72.12
2023-03-26T20:21:38.176Z,72.07
2023-03-26T20:24:17.851Z,72.28
2023-03-26T20:26:46.327Z,72.19
2023-03-26T20:29:14.880Z,72.03
2023-03-26T20:31:43.423Z,72.17
2023-03-26T20:34:15.743Z,72.15
2023-03-26T20:36:45.650Z,72.22
2023-03-26T20:39:13.944Z,72.33
2023-03-26T20:41:45.033Z,72.45
2023-03-26T20:44:15.734Z,72.61
2023-03-26T20:46:44.230Z,72.93
2023-03-26T20:49:12.527Z,73.05
2023-03-26T20:51:42.298Z,73.36
2023-03-26T20:54:14.951Z,73.61
2023-03-26T20:56:43.272Z,73.77
2023-03-26T20:59:11.971Z,73.47
2023-03-26T21:01:39.942Z,73.67
2023-03-26T21:04:07.966Z,73.83
2023-03-26T21:06:35.914Z,73.93
2023-03-26T21:09:04.193Z,73.88
2023-03-26T21:11:41.077Z,73.93
2023-03-26T21:14:10.946Z,74.22
2023-03-26T21:16:39.719Z,74.27
2023-03-26T21:19:07.899Z,74.29
2023-03-26T21:21:47.672Z,74.58
2023-03-26T21:24:23.995Z,74.61
2023-03-26T21:26:58.073Z,74.70
2023-03-26T21:29:26.365Z,74.86
2023-03-26T21:31:55.396Z,74.92
2023-03-26T21:34:24.159Z,74.99
2023-03-26T21:36:52.887Z,75.05
2023-03-26T21:39:21.192Z,75.27
2023-03-26T21:42:04.951Z,75.08
2023-03-26T21:44:36.056Z,75.30
2023-03-26T21:47:04.624Z,75.12
2023-03-26T21:49:33.954Z,75.45
2023-03-26T21:52:02.573Z,75.43
2023-03-26T21:54:31.379Z,75.64
2023-03-26T21:57:04.560Z,75.54
2023-03-26T21:59:36.411Z,75.54
2023-03-26T22:02:08.468Z,75.62
2023-03-26T22:04:37.964Z,75.80
2023-03-26T22:07:11.402Z,75.78
2023-03-26T22:09:39.861Z,75.99
2023-03-26T22:12:07.881Z,75.93
2023-03-26T22:14:36.210Z,76.01
2023-03-26T22:17:06.070Z,76.28
2023-03-26T22:19:34.789Z,76.07
2023-03-26T22:22:03.247Z,76.50
2023-03-26T22:24:31.484Z,76.74
2023-03-26T22:26:59.919Z,76.95
2023-03-26T22:29:30.793Z,77.11
2023-03-26T22:31:58.709Z,77.15
2023-03-26T22:34:28.133Z,77.12
2023-03-26T22:36:56.358Z,77.25
2023-03-26T22:39:24.500Z,77.47
2023-03-26T22:41:52.713Z,77.53
2023-03-26T22:44:20.816Z,77.71
2023-03-26T22:46:51.717Z,77.59
2023-03-26T22:49:20.018Z,77.46
2023-03-26T22:51:50.497Z,77.57
2023-03-26T22:54:18.491Z,77.55
2023-03-26T22:56:47.009Z,77.33
2023-03-26T22:59:17.276Z,77.40
2023-03-26T23:01:45.998Z,77.22
2023-03-26T23:04:31.540Z,77.22
2023-03-26T23:07:01.867Z,76.92
2023-03-26T23:09:29.785Z,77.18
2023-03-26T23:11:57.666Z,77.03
2023-03-26T23:14:25.866Z,77.00
2023-03-26T23:16:53.760Z,76.98
2023-03-26T23:19:21.885Z,76.87
2023-03-26T23:21:49.827Z,76.91
2023-03-26T23:24:19.277Z,77.04
2023-03-26T23:26:51.136Z,77.26
2023-03-26T23:29:19.632Z,77.44
2023-03-26T23:31:48.383Z,77.35
2023-03-26T23:34:17.288Z,77.76
2023-03-26T23:36:45.681Z,77.69
2023-03-26T23:39:13.712Z,77.87
2023-03-26T23:41:43.939Z,77.86
2023-03-26T23:44:13.724Z,77.96
2023-03-26T23:46:42.869Z,77.91
2023-03-26T23:49:12.247Z,77.83
2023-03-26T23:51:40.564Z,77.88
2023-03-26T23:54:08.953Z,78.05
2023-03-26T23:56:37.016Z,78.07
2023-03-26T23:59:10.387Z,78.05
